createdAt,value
2022-08-17T00:01:29.324Z,26.78
2022-08-17T00:04:34.611Z,26.83
2022-08-17T00:07:02.846Z,26.83
2022-08-17T00:09:31.105Z,26.85
2022-08-17T00:12:40.452Z,26.84
2022-08-17T00:15:00.040Z,26.8
2022-08-17T00:17:24.679Z,26.75
2022-08-17T00:20:30.527Z,26.73
2022-08-17T00:23:35.347Z,26.77
2022-08-17T00:26:03.550Z,26.73
2022-08-17T00:28:33.317Z,26.74
2022-08-17T00:31:00.091Z,26.69
2022-08-17T00:33:28.469Z,26.73
2022-08-17T00:36:33.595Z,26.7
2022-08-17T00:39:01.902Z,26.73
2022-08-17T00:41:30.961Z,26.9
2022-08-17T00:44:50.762Z,26.74
2022-08-17T00:47:03.654Z,26.71
2022-08-17T00:49:31.905Z,26.57
2022-08-17T00:52:00.185Z,26.59
2022-08-17T00:54:28.430Z,26.57
2022-08-17T00:57:33.740Z,26.57
2022-08-17T01:00:03.408Z,26.59
2022-08-17T01:02:30.222Z,26.6
2022-08-17T01:05:35.559Z,26.57
2022-08-17T01:08:03.750Z,26.57
2022-08-17T01:10:57.958Z,26.4
2022-08-17T01:13:00.288Z,26.44
2022-08-17T01:15:28.519Z,26.23
2022-08-17T01:18:25.668Z,26.33
2022-08-17T01:21:30.942Z,26.32
2022-08-17T01:24:36.277Z,26.37
2022-08-17T01:27:08.045Z,26.39
2022-08-17T01:29:32.777Z,26.34
2022-08-17T01:32:01.010Z,26.41
2022-08-17T01:34:36.884Z,26.3
2022-08-17T01:37:34.579Z,26.27
2022-08-17T01:40:02.913Z,26.3
2022-08-17T01:42:31.047Z,26.07
2022-08-17T01:45:36.362Z,26.09
2022-08-17T01:48:04.634Z,26.07
2022-08-17T01:50:32.837Z,26.09
2022-08-17T01:53:01.096Z,26.1
2022-08-17T01:55:29.361Z,26.06
2022-08-17T01:58:34.669Z,26.03
2022-08-17T02:01:02.968Z,26.03
2022-08-17T02:03:31.201Z,26.06
2022-08-17T02:05:59.439Z,26.08
2022-08-17T02:08:36.949Z,26.08
2022-08-17T02:11:32.954Z,26.05
2022-08-17T02:14:03.067Z,26.04
2022-08-17T02:16:29.490Z,26
2022-08-17T02:19:26.575Z,25.99
2022-08-17T02:22:31.902Z,25.89
2022-08-17T02:25:02.244Z,25.9
2022-08-17T02:27:28.404Z,25.85
2022-08-17T02:30:50.059Z,25.87
2022-08-17T02:33:04.121Z,25.83
2022-08-17T02:35:30.182Z,25.89
2022-08-17T02:38:35.538Z,25.91
2022-08-17T02:41:03.844Z,25.93
2022-08-17T02:43:32.051Z,25.85
2022-08-17T02:46:00.277Z,25.84
2022-08-17T02:48:30.903Z,25.81
2022-08-17T02:51:33.820Z,25.85
2022-08-17T02:54:02.267Z,25.85
2022-08-17T02:56:30.318Z,25.74
2022-08-17T02:58:58.594Z,25.68
2022-08-17T03:01:26.853Z,25.6
2022-08-17T03:04:34.413Z,25.56
2022-08-17T03:07:00.358Z,25.54
2022-08-17T03:09:28.607Z,25.56
2022-08-17T03:12:33.933Z,25.61
2022-08-17T03:15:02.175Z,25.58
2022-08-17T03:18:02.439Z,25.59
2022-08-17T03:19:50.481Z,25.57
2022-08-17T03:22:36.322Z,25.69
2022-08-17T03:25:24.082Z,25.48
2022-08-17T03:28:29.354Z,25.56
2022-08-17T03:31:34.682Z,25.53
2022-08-17T03:34:02.902Z,25.43
2022-08-17T03:36:31.149Z,25.46
2022-08-17T03:38:59.393Z,25.43
2022-08-17T03:41:27.646Z,25.44
2022-08-17T03:44:32.930Z,25.52
2022-08-17T03:47:01.256Z,25.54
2022-08-17T03:49:29.452Z,25.94
2022-08-17T03:52:34.761Z,26.06
2022-08-17T03:55:03.180Z,26.07
2022-08-17T03:58:08.358Z,26.01
2022-08-17T04:01:13.653Z,26.06
2022-08-17T04:04:18.940Z,26.03
2022-08-17T04:07:24.219Z,26.25
2022-08-17T04:10:29.567Z,26.4
2022-08-17T04:13:34.891Z,26.53
2022-08-17T04:16:03.146Z,26.55
2022-08-17T04:19:00.218Z,26.5
2022-08-17T04:21:28.497Z,26.29
2022-08-17T04:24:33.832Z,26.25
2022-08-17T04:27:02.047Z,26.24
2022-08-17T04:29:50.002Z,26.25
2022-08-17T04:33:00.878Z,26.43
2022-08-17T04:35:03.856Z,26.46
2022-08-17T04:37:32.121Z,26.42
2022-08-17T04:40:03.771Z,26.37
2022-08-17T04:42:28.610Z,26.29
2022-08-17T04:45:33.886Z,26.38
2022-08-17T04:48:02.182Z,26.4
2022-08-17T04:50:30.410Z,26.32
2022-08-17T04:53:35.722Z,26.35
2022-08-17T04:56:03.968Z,26.38
2022-08-17T04:58:32.228Z,26.57
2022-08-17T05:01:00.545Z,26.63
2022-08-17T05:03:28.716Z,26.64
2022-08-17T05:06:34.021Z,26.87
2022-08-17T05:09:02.300Z,26.89
2022-08-17T05:11:30.503Z,26.87
2022-08-17T05:14:35.837Z,26.83
2022-08-17T05:17:07.126Z,26.8
2022-08-17T05:19:32.343Z,26.61
2022-08-17T05:21:52.375Z,26.56
2022-08-17T05:24:38.781Z,26.62
2022-08-17T05:27:26.942Z,26.61
2022-08-17T05:30:31.248Z,26.64
2022-08-17T05:32:59.501Z,26.62
2022-08-17T05:35:27.721Z,26.59
2022-08-17T05:38:33.066Z,26.57
2022-08-17T05:41:01.338Z,26.56
2022-08-17T05:43:29.566Z,26.55
2022-08-17T05:46:34.843Z,26.59
2022-08-17T05:49:03.135Z,26.56
2022-08-17T05:51:31.417Z,26.61
2022-08-17T05:53:59.603Z,26.63
2022-08-17T05:56:29.217Z,26.67
2022-08-17T05:59:33.179Z,26.59
2022-08-17T06:02:01.430Z,26.59
2022-08-17T06:04:29.633Z,26.48
2022-08-17T06:07:34.980Z,26.48
2022-08-17T06:10:03.217Z,26.52
2022-08-17T06:12:31.480Z,26.61
2022-08-17T06:14:59.718Z,26.61
2022-08-17T06:17:27.969Z,26.69
2022-08-17T06:20:25.109Z,26.76
2022-08-17T06:23:30.409Z,26.86
2022-08-17T06:26:37.236Z,26.89
2022-08-17T06:29:03.964Z,26.89
2022-08-17T06:31:32.228Z,26.89
2022-08-17T06:34:00.431Z,26.88
2022-08-17T06:36:28.695Z,26.72
2022-08-17T06:39:34.030Z,26.88
2022-08-17T06:42:02.279Z,26.84
2022-08-17T06:44:42.393Z,26.83
2022-08-17T06:47:35.805Z,26.9
2022-08-17T06:50:04.082Z,26.94
2022-08-17T06:52:42.252Z,26.99
2022-08-17T06:55:00.544Z,26.99
2022-08-17T06:57:28.806Z,26.81
2022-08-17T07:03:02.877Z,26.81
2022-08-17T07:05:30.629Z,26.81
2022-08-17T07:07:58.862Z,26.83
2022-08-17T07:10:27.136Z,26.85
2022-08-17T07:13:32.420Z,26.88
2022-08-17T07:16:00.690Z,26.89
2022-08-17T07:18:28.903Z,26.74
2022-08-17T07:21:26.590Z,26.84
2022-08-17T07:24:31.340Z,26.81
2022-08-17T07:26:59.615Z,26.82
2022-08-17T07:29:27.829Z,26.9
2022-08-17T07:32:33.161Z,26.94
2022-08-17T07:35:01.406Z,26.92
2022-08-17T07:37:29.660Z,26.91
2022-08-17T07:40:35.014Z,26.9
2022-08-17T07:43:03.318Z,26.87
2022-08-17T07:45:31.452Z,26.85
2022-08-17T07:47:59.715Z,26.84
2022-08-17T07:50:27.978Z,26.84
2022-08-17T07:53:33.297Z,26.84
2022-08-17T07:56:01.567Z,26.86
2022-08-17T07:58:29.854Z,26.98
2022-08-17T08:01:39.786Z,27.01
2022-08-17T08:04:03.350Z,27.01
2022-08-17T08:06:31.588Z,27.06
2022-08-17T08:08:59.844Z,28.72
2022-08-17T08:12:05.103Z,27.11
2022-08-17T08:14:33.409Z,27.09
2022-08-17T08:17:01.625Z,27.07
2022-08-17T08:19:29.910Z,27.09
2022-08-17T08:22:27.007Z,27.07
2022-08-17T08:25:32.314Z,27.07
2022-08-17T08:28:00.556Z,27.06
2022-08-17T08:30:28.818Z,26.88
2022-08-17T08:33:34.093Z,27
2022-08-17T08:36:02.343Z,27
2022-08-17T08:38:30.606Z,27.06
2022-08-17T08:41:35.919Z,27.09
2022-08-17T08:44:04.173Z,27.08
2022-08-17T08:46:32.414Z,27.07
2022-08-17T08:49:03.802Z,27.07
2022-08-17T08:51:28.929Z,26.95
2022-08-17T08:54:34.219Z,27.17
2022-08-17T08:59:30.727Z,27.19
2022-08-17T09:02:36.036Z,27.22
2022-08-17T09:05:15.444Z,27.23
2022-08-17T09:07:32.535Z,27.23
2022-08-17T09:10:00.769Z,27.2
2022-08-17T09:12:29.045Z,27.02
2022-08-17T09:15:34.354Z,27.23
2022-08-17T09:18:59.756Z,27.25
2022-08-17T09:20:27.265Z,27.23
2022-08-17T09:23:27.912Z,27.26
2022-08-17T09:26:33.319Z,27.28
2022-08-17T09:29:01.537Z,27.28
2022-08-17T09:31:33.207Z,27.22
2022-08-17T09:34:35.042Z,27.27
2022-08-17T09:37:03.353Z,27.26
2022-08-17T09:39:31.643Z,27.29
2022-08-17T09:41:59.805Z,27.3
2022-08-17T09:44:28.056Z,27.33
2022-08-17T09:47:33.372Z,27.35
2022-08-17T09:50:01.614Z,27.35
2022-08-17T09:52:29.871Z,27.38
2022-08-17T09:56:07.229Z,27.4
2022-08-17T09:58:03.429Z,27.4
2022-08-17T10:00:31.683Z,27.41
2022-08-17T10:02:59.917Z,27.09
2022-08-17T10:06:06.456Z,27.45
2022-08-17T10:08:33.456Z,27.48
2022-08-17T10:11:01.746Z,27.49
2022-08-17T10:13:29.960Z,27.56
2022-08-17T10:16:35.282Z,27.6
2022-08-17T10:19:03.512Z,27.59
2022-08-17T10:21:23.573Z,27.6
2022-08-17T10:25:02.272Z,27.53
2022-08-17T10:27:34.241Z,27.7
2022-08-17T10:30:02.466Z,27.7
2022-08-17T10:32:30.691Z,27.67
2022-08-17T10:34:58.988Z,27.69
2022-08-17T10:37:27.205Z,27.71
2022-08-17T10:40:32.636Z,27.79
2022-08-17T10:43:00.768Z,27.81
2022-08-17T10:45:28.982Z,27.71
2022-08-17T10:48:34.311Z,27.89
2022-08-17T10:51:02.574Z,27.9
2022-08-17T10:53:30.809Z,27.89
2022-08-17T10:56:36.126Z,27.92
2022-08-17T10:59:04.403Z,27.92
2022-08-17T11:01:32.763Z,28
2022-08-17T11:04:00.867Z,27.46
2022-08-17T11:07:06.181Z,27.96
2022-08-17T11:09:34.453Z,27.96
2022-08-17T11:12:02.732Z,27.97
2022-08-17T11:14:30.929Z,27.98
2022-08-17T11:17:36.238Z,27.99
2022-08-17T11:21:10.410Z,28
2022-08-17T11:24:15.704Z,27.99
2022-08-17T11:27:21.045Z,28.01
2022-08-17T11:30:26.695Z,27.98
2022-08-17T11:33:31.785Z,28.01
2022-08-17T11:35:59.895Z,27.97
2022-08-17T11:39:05.193Z,28.02
2022-08-17T11:41:33.442Z,28.05
2022-08-17T11:44:01.943Z,28.08
2022-08-17T11:46:29.941Z,28.13
2022-08-17T11:49:35.292Z,28.16
2022-08-17T11:52:03.527Z,28.16
2022-08-17T11:54:33.570Z,28.17
2022-08-17T11:57:00.038Z,28.18
2022-08-17T11:59:28.251Z,28.14
2022-08-17T12:02:33.579Z,28.11
2022-08-17T12:05:01.862Z,28.12
2022-08-17T12:07:30.100Z,28.13
2022-08-17T12:10:35.454Z,28.17
2022-08-17T12:13:03.634Z,28.16
2022-08-17T12:15:31.924Z,28.15
2022-08-17T12:18:00.171Z,28.14
2022-08-17T12:20:28.354Z,28.19
2022-08-17T12:23:25.518Z,28.24
2022-08-17T12:26:30.790Z,28.28
2022-08-17T12:28:59.730Z,28.28
2022-08-17T12:31:27.305Z,28.34
2022-08-17T12:34:32.615Z,28.4
2022-08-17T12:37:00.829Z,28.43
2022-08-17T12:39:29.127Z,28.49
2022-08-17T12:42:34.409Z,28.57
2022-08-17T12:45:02.670Z,28.58
2022-08-17T12:47:31.719Z,28.7
2022-08-17T12:50:36.211Z,28.84
2022-08-17T12:53:04.494Z,28.89
2022-08-17T12:55:33.884Z,29.09
2022-08-17T12:58:01.923Z,28.01
2022-08-17T13:00:29.211Z,29.23
2022-08-17T13:04:11.598Z,29.43
2022-08-17T13:07:16.918Z,29.6
2022-08-17T13:10:22.216Z,29.78
2022-08-17T13:13:27.543Z,29.92
2022-08-17T13:16:32.835Z,29.99
2022-08-17T13:19:01.052Z,30.02
2022-08-17T13:21:29.296Z,30.15
2022-08-17T13:24:26.444Z,30.34
2022-08-17T13:27:31.783Z,30.57
2022-08-17T13:30:00.036Z,29.49
2022-08-17T13:33:05.325Z,30.95
2022-08-17T13:35:38.885Z,31.21
2022-08-17T13:38:01.827Z,31.3
2022-08-17T13:40:30.084Z,31.64
2022-08-17T13:43:35.350Z,31.85
2022-08-17T13:46:03.588Z,31.95
2022-08-17T13:48:31.897Z,32.12
2022-08-17T13:51:00.226Z,32.11
2022-08-17T13:53:28.332Z,32.13
2022-08-17T13:56:38.101Z,32.32
2022-08-17T13:59:01.949Z,32.38
2022-08-17T14:01:30.233Z,32.49
2022-08-17T14:04:35.449Z,32.58
2022-08-17T14:07:03.715Z,32.62
2022-08-17T14:09:36.485Z,32.74
2022-08-17T14:12:00.215Z,32.74
2022-08-17T14:14:28.452Z,32.68
2022-08-17T14:17:38.565Z,32.75
2022-08-17T14:20:02.025Z,32.79
2022-08-17T14:22:59.174Z,32.83
2022-08-17T14:25:27.414Z,32.82
2022-08-17T14:28:32.705Z,32.9
2022-08-17T14:34:06.267Z,32.91
2022-08-17T14:36:34.556Z,33
2022-08-17T14:39:02.804Z,33.03
2022-08-17T14:41:30.992Z,32.93
2022-08-17T14:44:36.310Z,32.9
2022-08-17T14:47:04.595Z,32.9
2022-08-17T14:49:32.832Z,32.93
2022-08-17T14:52:01.056Z,32.95
2022-08-17T14:54:33.815Z,33.03
2022-08-17T14:58:11.701Z,33.12
2022-08-17T15:01:17.034Z,33.16
2022-08-17T15:04:22.306Z,33.27
2022-08-17T15:07:30.381Z,33.4
2022-08-17T15:10:32.934Z,33.45
2022-08-17T15:13:01.215Z,33.46
2022-08-17T15:15:29.448Z,33.53
2022-08-17T15:18:34.712Z,33.68
2022-08-17T15:21:02.999Z,33.7
2022-08-17T15:23:23.036Z,33.71
2022-08-17T15:26:28.324Z,33.72
2022-08-17T15:29:33.691Z,33.71
2022-08-17T15:32:01.901Z,33.71
2022-08-17T15:34:30.168Z,33.88
2022-08-17T15:37:35.491Z,33.96
2022-08-17T15:40:03.812Z,33.96
2022-08-17T15:42:31.961Z,33.91
2022-08-17T15:45:00.202Z,33.91
2022-08-17T15:47:28.441Z,33.83
2022-08-17T15:50:33.767Z,33.72
2022-08-17T15:53:02.009Z,33.68
2022-08-17T15:55:30.243Z,33.53
2022-08-17T15:58:35.593Z,33.38
2022-08-17T16:01:15.233Z,33.32
2022-08-17T16:03:46.519Z,33.15
2022-08-17T16:06:00.337Z,33.11
2022-08-17T16:08:28.563Z,32.98
2022-08-17T16:11:33.888Z,32.91
2022-08-17T16:14:02.114Z,32.9
2022-08-17T16:16:30.379Z,32.77
2022-08-17T16:19:35.686Z,32.7
2022-08-17T16:23:09.845Z,32.62
2022-08-17T16:26:15.163Z,32.55
2022-08-17T16:29:20.510Z,32.5
2022-08-17T16:33:02.871Z,32.43
2022-08-17T16:35:31.126Z,32.36
2022-08-17T16:37:59.377Z,32.32
2022-08-17T16:40:27.612Z,32.22
2022-08-17T16:43:32.943Z,32.16
2022-08-17T16:46:01.137Z,32.15
2022-08-17T16:48:29.415Z,32.07
2022-08-17T16:51:34.736Z,31.99
2022-08-17T16:54:02.996Z,31.98
2022-08-17T16:56:31.219Z,31.93
2022-08-17T16:59:39.464Z,31.89
2022-08-17T17:02:04.773Z,31.86
2022-08-17T17:04:35.258Z,31.82
2022-08-17T17:07:01.295Z,31.81
2022-08-17T17:09:29.519Z,31.78
2022-08-17T17:12:38.181Z,31.74
2022-08-17T17:15:03.057Z,31.73
2022-08-17T17:17:31.321Z,31.68
2022-08-17T17:20:36.641Z,31.65
2022-08-17T17:23:33.793Z,31.64
2022-08-17T17:26:01.998Z,31.62
2022-08-17T17:28:30.254Z,31.57
2022-08-17T17:32:12.643Z,31.54
2022-08-17T17:35:17.945Z,31.52
2022-08-17T17:38:23.276Z,31.48
2022-08-17T17:41:28.549Z,31.44
2022-08-17T17:44:33.879Z,31.42
2022-08-17T17:47:02.141Z,31.41
2022-08-17T17:49:30.343Z,31.37
2022-08-17T17:52:35.687Z,31.33
2022-08-17T17:55:03.953Z,31.33
2022-08-17T17:57:32.178Z,31.29
2022-08-17T18:00:00.433Z,31.28
2022-08-17T18:02:28.673Z,31.23
2022-08-17T18:05:34.086Z,31.21
2022-08-17T18:08:05.924Z,31.18
2022-08-17T18:10:31.694Z,31.14
2022-08-17T18:13:35.794Z,31.12
2022-08-17T18:16:04.039Z,31.11
2022-08-17T18:18:32.322Z,31.09
2022-08-17T18:21:00.529Z,31.08
2022-08-17T18:23:28.898Z,31.05
2022-08-17T18:26:25.891Z,31.01
2022-08-17T18:29:31.212Z,30.97
2022-08-17T18:31:59.482Z,30.97
2022-08-17T18:34:46.335Z,30.93
2022-08-17T18:37:33.077Z,30.92
2022-08-17T18:40:01.360Z,30.92
2022-08-17T18:42:29.572Z,30.89
2022-08-17T18:45:34.835Z,30.83
2022-08-17T18:48:03.111Z,30.82
2022-08-17T18:50:31.312Z,30.74
2022-08-17T18:53:36.643Z,30.7
2022-08-17T18:56:04.872Z,30.69
2022-08-17T18:58:33.128Z,30.62
2022-08-17T19:01:01.430Z,30.59
2022-08-17T19:03:29.641Z,30.45
2022-08-17T19:06:34.983Z,30.39
2022-08-17T19:09:03.206Z,30.37
2022-08-17T19:11:31.420Z,30.34
2022-08-17T19:14:36.754Z,30.25
2022-08-17T19:17:05.033Z,30.21
2022-08-17T19:19:33.240Z,30.19
2022-08-17T19:22:01.484Z,30.18
2022-08-17T19:25:02.888Z,30.14
2022-08-17T19:27:26.870Z,29.97
2022-08-17T19:30:32.195Z,29.9
2022-08-17T19:33:00.392Z,29.91
2022-08-17T19:35:28.695Z,29.86
2022-08-17T19:38:33.975Z,29.82
2022-08-17T19:41:02.285Z,29.83
2022-08-17T19:43:30.496Z,29.78
2022-08-17T19:46:36.015Z,29.73
2022-08-17T19:49:04.039Z,29.72
2022-08-17T19:51:32.329Z,29.53
2022-08-17T19:54:06.856Z,29.5
2022-08-17T19:56:28.759Z,29.33
2022-08-17T19:59:35.726Z,29.32
2022-08-17T20:02:02.378Z,29.28
2022-08-17T20:04:31.763Z,29.32
2022-08-17T20:07:35.864Z,29.26
2022-08-17T20:10:04.184Z,29.25
2022-08-17T20:12:32.393Z,29.17
2022-08-17T20:15:00.631Z,29.17
2022-08-17T20:17:28.863Z,29.06
2022-08-17T20:21:06.105Z,29.06
2022-08-17T20:23:02.456Z,29.12
2022-08-17T20:25:23.609Z,29.03
2022-08-17T20:28:27.815Z,29
2022-08-17T20:31:33.148Z,29.03
2022-08-17T20:34:01.367Z,29.02
2022-08-17T20:36:29.594Z,29.03
2022-08-17T20:39:34.914Z,28.9
2022-08-17T20:42:03.199Z,28.89
2022-08-17T20:44:46.911Z,28.84
2022-08-17T20:46:59.693Z,28.82
2022-08-17T20:49:27.924Z,28.84
2022-08-17T20:52:33.278Z,28.9
2022-08-17T20:55:01.463Z,28.9
2022-08-17T20:57:29.724Z,28.9
2022-08-17T21:00:35.050Z,28.95
2022-08-17T21:03:03.281Z,28.95
2022-08-17T21:05:31.515Z,28.93
2022-08-17T21:08:36.919Z,28.87
2022-08-17T21:11:05.085Z,28.85
2022-08-17T21:13:33.333Z,28.83
2022-08-17T21:16:01.577Z,28.84
2022-08-17T21:18:29.857Z,28.9
2022-08-17T21:21:35.166Z,28.81
2022-08-17T21:25:09.598Z,28.68
2022-08-17T21:28:14.699Z,28.69
2022-08-17T21:31:19.943Z,28.6
2022-08-17T21:34:25.284Z,28.57
2022-08-17T21:37:30.563Z,28.46
2022-08-17T21:40:36.282Z,28.49
2022-08-17T21:43:04.151Z,28.5
2022-08-17T21:45:32.379Z,28.52
2022-08-17T21:48:00.612Z,28.47
2022-08-17T21:50:29.957Z,28.52
2022-08-17T21:53:34.215Z,28.57
2022-08-17T21:56:02.465Z,28.54
2022-08-17T21:58:30.680Z,28.48
2022-08-17T22:01:35.988Z,28.49
2022-08-17T22:04:04.271Z,28.51
2022-08-17T22:06:32.498Z,28.46
2022-08-17T22:09:00.727Z,28.44
2022-08-17T22:11:28.957Z,28.42
2022-08-17T22:14:51.377Z,28.51
2022-08-17T22:17:02.575Z,28.53
2022-08-17T22:19:30.799Z,28.57
2022-08-17T22:22:36.071Z,28.58
2022-08-17T22:25:41.448Z,28.55
2022-08-17T22:28:01.444Z,28.54
2022-08-17T22:30:29.754Z,28.55
2022-08-17T22:33:35.066Z,28.62
2022-08-17T22:36:03.291Z,28.57
2022-08-17T22:38:31.506Z,28.49
2022-08-17T22:40:59.779Z,28.49
2022-08-17T22:43:28.016Z,28.53
2022-08-17T22:46:33.335Z,28.66
2022-08-17T22:50:15.708Z,28.75
2022-08-17T22:53:20.997Z,28.84
2022-08-17T22:56:26.345Z,28.88
2022-08-17T22:59:31.609Z,28.86
2022-08-17T23:01:59.895Z,28.83
2022-08-17T23:04:28.155Z,28.92
2022-08-17T23:07:33.467Z,28.96
2022-08-17T23:10:01.721Z,28.95
2022-08-17T23:12:29.912Z,28.96
2022-08-17T23:15:35.226Z,28.95
2022-08-17T23:18:03.506Z,28.94
2022-08-17T23:20:31.781Z,28.93
2022-08-17T23:23:00.031Z,28.93
2022-08-17T23:25:28.262Z,28.77
2022-08-17T23:28:25.409Z,28.56
2022-08-17T23:31:30.740Z,28.51
2022-08-17T23:33:58.922Z,28.49
2022-08-17T23:36:27.152Z,28.28
2022-08-17T23:39:32.561Z,28.22
2022-08-17T23:42:00.719Z,28.22
2022-08-17T23:44:29.087Z,28.18
2022-08-17T23:47:34.235Z,28.35
2022-08-17T23:50:02.549Z,28.38
2022-08-17T23:52:30.761Z,28.39
2022-08-17T23:55:36.119Z,28.39
2022-08-17T23:58:04.343Z,28.4
